Time;durP1;ratioP1;P1;durP2;ratioP2;P2;SDS_P1;SDS_P2;PMS_P1;PMS_P2;Temp;Humidity;BMP_temperature;BMP_pressure;BME280_temperature;BME280_humidity;BME280_pressure;Samples;Min_cycle;Max_cycle;Signal;HPM_P1;HPM_P2
2021/12/18 00:01:32;;;;;;;30.83;5.75;;;8.90;93.50;;;;;;5066129;28;20075;-78
2021/12/18 00:03:58;;;;;;;23.83;3.72;;;8.90;93.50;;;;;;5050188;28;20089;-78
2021/12/18 00:06:27;;;;;;;27.20;4.18;;;8.90;93.50;;;;;;5052576;28;20056;-78
2021/12/18 00:08:54;;;;;;;33.00;4.30;;;8.90;93.40;;;;;;5049619;28;20630;-78
2021/12/18 00:11:19;;;;;;;22.38;4.22;;;8.90;93.40;;;;;;5041657;28;20449;-78
2021/12/18 00:13:45;;;;;;;28.30;4.50;;;8.90;93.40;;;;;;5029528;28;20094;-78
2021/12/18 00:16:11;;;;;;;23.40;4.20;;;8.90;93.50;;;;;;5039537;28;20052;-78
2021/12/18 00:18:36;;;;;;;15.38;3.60;;;8.90;93.50;;;;;;5038390;28;20065;-78
2021/12/18 00:21:04;;;;;;;17.80;3.83;;;8.80;93.80;;;;;;5048804;28;20431;-78
2021/12/18 00:23:30;;;;;;;19.65;3.95;;;8.80;93.40;;;;;;5037552;28;20105;-78
2021/12/18 00:25:56;;;;;;;20.02;4.25;;;8.80;93.40;;;;;;5052975;28;20139;-78
2021/12/18 00:28:21;;;;;;;19.63;4.43;;;8.80;93.70;;;;;;5052016;28;20529;-78
2021/12/18 00:30:47;;;;;;;17.08;4.40;;;8.80;93.40;;;;;;5065118;28;20167;-78
2021/12/18 00:33:13;;;;;;;34.28;3.97;;;8.70;93.40;;;;;;5053025;28;20114;-78
2021/12/18 00:35:39;;;;;;;35.15;4.60;;;8.70;93.40;;;;;;5032980;28;20057;-78
2021/12/18 00:38:07;;;;;;;22.70;3.95;;;8.70;93.40;;;;;;5027544;28;20053;-78
2021/12/18 00:40:58;;;;;;;21.00;4.00;;;8.70;93.40;;;;;;5044838;28;20101;-78
2021/12/18 00:43:31;;;;;;;38.25;4.20;;;8.70;93.50;;;;;;5048321;28;20151;-78
2021/12/18 00:45:57;;;;;;;32.03;4.85;;;8.70;93.50;;;;;;5070957;28;20076;-78
2021/12/18 00:48:24;;;;;;;43.50;4.90;;;8.70;93.50;;;;;;5049023;28;20080;-78
2021/12/18 00:50:49;;;;;;;29.60;4.55;;;8.70;93.50;;;;;;5055302;28;20110;-78
2021/12/18 00:53:15;;;;;;;43.60;4.57;;;8.70;93.50;;;;;;5048978;28;20061;-78
2021/12/18 00:55:41;;;;;;;16.55;4.50;;;8.60;93.40;;;;;;5071890;28;20064;-78
2021/12/18 00:58:07;;;;;;;14.32;4.80;;;8.60;93.50;;;;;;5051832;28;20080;-78
2021/12/18 01:00:33;;;;;;;22.67;4.35;;;8.60;93.50;;;;;;5030484;28;20532;-78
2021/12/18 01:03:02;;;;;;;18.00;4.55;;;8.60;93.60;;;;;;5052868;28;20176;-78
2021/12/18 01:05:31;;;;;;;21.08;4.45;;;8.60;93.60;;;;;;5068156;28;20061;-77
2021/12/18 01:07:58;;;;;;;17.75;4.85;;;8.70;93.70;;;;;;5054021;28;20055;-78
2021/12/18 01:11:06;;;;;;;19.73;5.07;;;8.70;93.70;;;;;;5068154;28;20094;-78
2021/12/18 01:13:20;;;;;;;22.67;5.93;;;8.70;93.70;;;;;;5059323;28;20156;-78
2021/12/18 01:15:50;;;;;;;34.55;5.40;;;8.70;93.60;;;;;;5058785;28;20054;-78
2021/12/18 01:23:45;;;;;;;28.20;6.57;;;8.70;93.50;;;;;;5055812;28;20061;-78
2021/12/18 01:26:10;;;;;;;80.53;7.80;;;8.60;93.50;;;;;;5054411;28;20052;-78
2021/12/18 01:28:36;;;;;;;42.70;6.55;;;8.60;93.60;;;;;;5044699;28;20417;-78
2021/12/18 01:31:03;;;;;;;51.10;6.82;;;8.60;93.60;;;;;;5048282;28;20053;-78
2021/12/18 01:33:28;;;;;;;47.08;7.28;;;8.60;93.60;;;;;;5036006;28;20075;-77
2021/12/18 01:35:55;;;;;;;67.03;7.97;;;8.60;93.60;;;;;;5067123;28;20525;-78
2021/12/18 01:38:22;;;;;;;91.28;7.57;;;8.60;93.60;;;;;;5037656;28;20065;-77
2021/12/18 01:40:49;;;;;;;74.30;6.95;;;8.60;93.60;;;;;;5045878;28;20059;-78
2021/12/18 01:51:21;;;;;;;67.10;6.38;;;8.50;93.50;;;;;;5051985;28;20535;-78
2021/12/18 01:53:50;;;;;;;73.93;5.78;;;8.40;93.50;;;;;;5041250;28;20115;-78
2021/12/18 01:56:16;;;;;;;42.78;4.35;;;8.40;93.60;;;;;;5061864;28;20051;-78
2021/12/18 01:58:44;;;;;;;45.38;4.15;;;8.40;93.60;;;;;;5051814;28;20064;-78
2021/12/18 02:01:11;;;;;;;41.25;4.80;;;8.40;94.00;;;;;;5068715;28;20069;-78
2021/12/18 02:03:36;;;;;;;32.08;5.38;;;8.30;93.60;;;;;;5053753;28;20085;-78
2021/12/18 02:06:03;;;;;;;37.50;5.10;;;8.30;93.70;;;;;;5063746;28;20062;-77
2021/12/18 02:08:30;;;;;;;14.85;3.42;;;8.30;93.70;;;;;;5064960;28;20154;-78
2021/12/18 02:11:41;;;;;;;22.92;3.88;;;8.40;93.70;;;;;;5043763;28;20060;-78
2021/12/18 02:21:45;;;;;;;78.55;5.35;;;8.40;93.60;;;;;;5066091;28;20103;-78
2021/12/18 02:24:14;;;;;;;79.78;6.22;;;8.40;93.60;;;;;;5038269;28;20800;-78
2021/12/18 02:26:40;;;;;;;100.20;6.85;;;8.40;93.60;;;;;;5044231;28;20050;-78
2021/12/18 02:29:08;;;;;;;33.13;4.28;;;8.40;93.60;;;;;;5045448;28;20111;-78
2021/12/18 02:31:34;;;;;;;33.03;4.60;;;8.40;93.50;;;;;;5046820;28;20053;-78
2021/12/18 02:34:01;;;;;;;68.63;4.93;;;8.30;93.40;;;;;;5036045;28;20418;-78
2021/12/18 02:36:27;;;;;;;54.95;5.45;;;8.30;93.50;;;;;;5060702;28;20471;-78
2021/12/18 02:39:43;;;;;;;82.45;5.75;;;8.30;93.40;;;;;;5032550;28;20054;-78
2021/12/18 02:41:56;;;;;;;44.50;4.50;;;8.20;93.40;;;;;;5048976;28;20074;-78
2021/12/18 02:44:21;;;;;;;31.05;3.97;;;8.20;93.50;;;;;;5046723;28;20090;-78
2021/12/18 02:46:47;;;;;;;27.30;4.25;;;8.20;93.60;;;;;;5035394;28;20403;-78
2021/12/18 02:49:15;;;;;;;12.55;3.00;;;8.20;93.90;;;;;;5050030;28;20057;-78
2021/12/18 02:51:41;;;;;;;13.27;2.92;;;8.20;93.50;;;;;;5045433;28;20050;-78
2021/12/18 02:54:07;;;;;;;11.85;2.72;;;8.10;93.50;;;;;;5069158;28;20103;-78
2021/12/18 02:56:33;;;;;;;8.93;2.22;;;8.10;93.50;;;;;;5049721;28;20425;-78
2021/12/18 02:59:05;;;;;;;8.00;2.00;;;8.10;93.50;;;;;;5050362;28;20397;-78
2021/12/18 03:01:32;;;;;;;;;;;8.10;93.50;;;;;;5048284;28;20099;-78
2021/12/18 03:03:59;;;;;;;9.35;2.10;;;8.10;93.50;;;;;;5038586;28;19969;-78
2021/12/18 03:27:20;;;;;;;10.82;2.03;;;8.10;93.50;;;;;;5047734;28;20063;-78
2021/12/18 03:29:46;;;;;;;8.70;1.95;;;8.10;93.50;;;;;;5054461;28;20057;-78
2021/12/18 03:32:12;;;;;;;12.23;1.52;;;8.00;93.50;;;;;;5038074;28;20069;-78
2021/12/18 03:34:38;;;;;;;7.50;1.27;;;8.00;93.50;;;;;;5022274;28;20061;-78
2021/12/18 03:37:04;;;;;;;9.15;1.50;;;7.90;93.50;;;;;;5047138;28;20045;-78
2021/12/18 03:39:30;;;;;;;10.57;1.77;;;7.90;93.50;;;;;;5038960;28;20512;-77
2021/12/18 03:41:56;;;;;;;10.20;1.88;;;7.90;93.60;;;;;;5054795;28;20080;-78
2021/12/18 03:44:23;;;;;;;18.60;2.47;;;7.90;93.60;;;;;;5062528;28;20088;-78
2021/12/18 03:46:49;;;;;;;9.15;2.08;;;7.90;93.60;;;;;;5040307;28;20429;-77
2021/12/18 03:49:15;;;;;;;7.93;1.63;;;7.90;93.60;;;;;;5063103;28;20062;-78
2021/12/18 03:51:40;;;;;;;7.75;1.40;;;7.90;93.60;;;;;;5055264;28;20530;-78
2021/12/18 03:54:06;;;;;;;8.30;1.42;;;7.90;93.60;;;;;;5048816;28;20048;-78
2021/12/18 03:56:32;;;;;;;5.63;1.10;;;7.90;93.60;;;;;;5069362;28;20055;-77
2021/12/18 03:58:58;;;;;;;10.45;1.65;;;7.90;93.60;;;;;;5061774;28;20053;-78
2021/12/18 04:01:25;;;;;;;5.72;1.08;;;7.80;93.60;;;;;;5061077;28;20087;-78
2021/12/18 04:03:51;;;;;;;7.40;1.58;;;7.80;93.60;;;;;;5050723;28;20093;-77
2021/12/18 04:06:17;;;;;;;7.35;1.50;;;7.80;93.60;;;;;;5045944;28;20114;-77
2021/12/18 04:08:43;;;;;;;12.98;2.28;;;7.80;93.60;;;;;;5055099;28;20467;-78
2021/12/18 04:11:09;;;;;;;15.07;2.60;;;7.80;93.60;;;;;;5042571;28;20061;-78
2021/12/18 04:13:34;;;;;;;10.60;2.50;;;7.80;93.60;;;;;;5063150;28;20059;-77
2021/12/18 04:16:00;;;;;;;10.90;3.58;;;7.80;93.70;;;;;;5051678;28;20423;-78
2021/12/18 04:18:26;;;;;;;12.38;3.38;;;7.80;93.60;;;;;;5045352;28;20062;-78
2021/12/18 04:20:52;;;;;;;10.88;3.17;;;7.80;93.60;;;;;;5029541;28;20079;-78
2021/12/18 04:23:18;;;;;;;11.23;3.13;;;7.80;93.50;;;;;;5044428;28;20057;-78
2021/12/18 04:25:44;;;;;;;14.15;3.35;;;7.80;93.60;;;;;;5068015;28;20505;-78
2021/12/18 04:28:09;;;;;;;18.25;3.88;;;7.80;93.60;;;;;;5046624;28;20059;-78
2021/12/18 04:30:35;;;;;;;19.60;4.35;;;7.80;93.60;;;;;;5036329;28;20055;-78
2021/12/18 04:33:02;;;;;;;16.20;3.90;;;7.80;93.60;;;;;;5067110;28;20057;-78
2021/12/18 04:35:28;;;;;;;12.02;3.85;;;7.70;93.50;;;;;;5043447;28;20142;-78
2021/12/18 04:37:54;;;;;;;18.77;4.35;;;7.70;93.60;;;;;;5034213;28;20050;-77
2021/12/18 04:40:26;;;;;;;16.80;4.68;;;7.70;93.50;;;;;;5064601;28;20071;-77
2021/12/18 04:42:56;;;;;;;18.25;4.20;;;7.70;93.60;;;;;;5051823;28;20750;-78
2021/12/18 04:45:22;;;;;;;16.00;4.60;;;7.70;93.70;;;;;;5068203;28;20065;-78
2021/12/18 04:47:48;;;;;;;20.75;4.53;;;7.70;93.70;;;;;;5066671;28;20064;-78
2021/12/18 04:50:14;;;;;;;23.17;5.10;;;7.80;93.70;;;;;;5068553;28;20064;-78
2021/12/18 04:52:40;;;;;;;16.45;4.50;;;7.80;93.70;;;;;;5066023;28;20560;-78
2021/12/18 04:55:06;;;;;;;19.75;4.00;;;7.80;93.60;;;;;;5040152;28;20164;-78
2021/12/18 04:57:32;;;;;;;13.75;4.10;;;7.80;93.70;;;;;;5063937;28;20113;-78
2021/12/18 04:59:58;;;;;;;17.60;3.70;;;7.70;93.60;;;;;;5051426;28;20533;-78
2021/12/18 05:02:33;;;;;;;13.32;3.70;;;7.80;93.60;;;;;;5065012;28;20052;-78
2021/12/18 05:04:59;;;;;;;11.55;2.80;;;7.80;93.70;;;;;;5045910;28;20062;-78
2021/12/18 05:07:26;;;;;;;14.80;3.10;;;7.80;93.70;;;;;;5062533;28;20405;-78
2021/12/18 05:09:52;;;;;;;16.00;2.85;;;7.80;93.70;;;;;;5070777;28;20137;-78
2021/12/18 05:12:18;;;;;;;13.57;3.10;;;7.80;93.70;;;;;;5071647;28;20144;-78
2021/12/18 05:14:43;;;;;;;14.95;2.80;;;7.80;93.60;;;;;;5049950;28;20063;-78
2021/12/18 05:17:09;;;;;;;19.88;3.20;;;7.90;93.70;;;;;;5072309;28;20161;-78
2021/12/18 05:19:35;;;;;;;17.50;3.88;;;7.80;93.60;;;;;;5066758;28;20065;-77
2021/12/18 05:22:01;;;;;;;14.30;3.13;;;7.80;93.60;;;;;;5041614;28;20082;-77
2021/12/18 05:24:27;;;;;;;15.50;3.03;;;7.90;93.70;;;;;;5036629;28;20520;-78
2021/12/18 05:26:52;;;;;;;14.18;3.80;;;7.90;93.60;;;;;;5015064;28;20817;-77
2021/12/18 05:29:18;;;;;;;16.83;2.95;;;7.90;93.60;;;;;;5071456;28;20510;-78
2021/12/18 05:31:45;;;;;;;14.57;2.70;;;7.90;93.60;;;;;;5049046;28;20057;-78
2021/12/18 05:34:11;;;;;;;12.65;3.47;;;7.90;93.60;;;;;;5055977;28;20149;-78
2021/12/18 05:37:11;;;;;;;18.95;2.75;;;7.90;93.50;;;;;;5066863;28;21027;-78
2021/12/18 05:39:30;;;;;;;17.33;3.80;;;7.90;93.50;;;;;;5066439;28;20076;-78
2021/12/18 05:41:56;;;;;;;16.25;3.60;;;7.90;93.60;;;;;;5068170;28;20056;-78
2021/12/18 05:44:25;;;;;;;15.80;3.05;;;7.90;93.90;;;;;;5037662;28;20730;-78
2021/12/18 05:46:52;;;;;;;18.85;3.08;;;7.90;93.60;;;;;;5039099;28;20043;-78
2021/12/18 05:49:19;;;;;;;15.98;3.03;;;7.90;93.60;;;;;;5066895;28;20081;-78
2021/12/18 05:51:46;;;;;;;20.42;3.15;;;8.00;93.60;;;;;;5071853;28;20058;-78
2021/12/18 05:54:13;;;;;;;18.02;3.50;;;8.00;93.60;;;;;;5065455;28;20062;-78
2021/12/18 05:56:40;;;;;;;18.02;3.03;;;8.00;93.60;;;;;;5071867;28;20202;-77
2021/12/18 05:59:06;;;;;;;18.67;4.03;;;8.00;93.60;;;;;;5064013;28;20069;-78
2021/12/18 06:01:31;;;;;;;25.05;3.65;;;8.00;93.60;;;;;;5029972;28;20076;-78
2021/12/18 06:03:58;;;;;;;13.15;3.20;;;8.00;93.60;;;;;;5039060;28;20547;-78
2021/12/18 06:06:23;;;;;;;32.13;3.90;;;8.00;93.60;;;;;;5049657;28;20153;-78
2021/12/18 06:08:52;;;;;;;13.18;3.13;;;8.10;93.70;;;;;;5067497;28;20128;-78
2021/12/18 06:11:21;;;;;;;20.02;4.03;;;8.10;93.60;;;;;;5047928;28;20070;-78
2021/12/18 06:13:50;;;;;;;21.63;4.10;;;8.10;93.60;;;;;;5053644;28;20065;-78
2021/12/18 06:16:18;;;;;;;24.92;3.60;;;8.10;93.60;;;;;;5061925;28;20046;-78
2021/12/18 06:18:45;;;;;;;31.67;4.35;;;8.10;93.60;;;;;;5046249;28;20064;-78
2021/12/18 06:21:15;;;;;;;18.23;3.67;;;8.10;93.60;;;;;;5049301;28;20443;-78
2021/12/18 06:23:42;;;;;;;25.52;4.85;;;8.10;93.60;;;;;;5045726;28;20058;-78
2021/12/18 06:26:08;;;;;;;25.67;4.65;;;8.10;93.60;;;;;;5057633;28;20058;-78
2021/12/18 06:28:34;;;;;;;27.10;4.72;;;8.10;93.60;;;;;;5036055;28;20056;-78
2021/12/18 06:31:01;;;;;;;31.40;5.90;;;8.10;93.60;;;;;;5037419;28;20065;-78
2021/12/18 06:33:27;;;;;;;28.48;5.40;;;8.10;93.60;;;;;;5043183;28;20052;-78
2021/12/18 06:35:53;;;;;;;24.55;4.95;;;8.10;93.60;;;;;;5058052;28;20065;-78
2021/12/18 06:38:18;;;;;;;32.75;5.18;;;8.10;93.60;;;;;;5051796;28;20513;-78
2021/12/18 06:40:44;;;;;;;32.75;5.05;;;8.10;93.60;;;;;;5062585;28;20070;-78
2021/12/18 06:43:10;;;;;;;30.90;5.18;;;8.00;93.60;;;;;;5071698;28;20052;-77
2021/12/18 06:45:35;;;;;;;27.70;5.70;;;8.00;93.60;;;;;;5048260;28;20065;-77
2021/12/18 06:48:01;;;;;;;32.33;5.93;;;8.10;93.60;;;;;;5024860;28;20050;-76
2021/12/18 06:50:27;;;;;;;33.83;6.03;;;8.00;93.70;;;;;;5049056;28;20067;-77
2021/12/18 06:52:53;;;;;;;37.13;6.57;;;8.10;93.70;;;;;;5065797;28;20131;-77
2021/12/18 06:55:19;;;;;;;36.40;5.68;;;8.10;93.70;;;;;;5063437;28;20762;-77
2021/12/18 06:57:45;;;;;;;37.13;5.53;;;8.10;93.70;;;;;;5043800;28;20061;-77
2021/12/18 07:00:14;;;;;;;32.20;5.70;;;8.10;93.70;;;;;;5033322;28;20097;-77
2021/12/18 07:02:40;;;;;;;36.78;6.38;;;8.10;93.80;;;;;;5063017;28;20152;-77
2021/12/18 07:05:08;;;;;;;33.70;5.90;;;8.10;93.70;;;;;;5063111;28;20073;-76
2021/12/18 07:07:33;;;;;;;38.45;5.93;;;8.10;93.70;;;;;;5049301;28;20072;-76
2021/12/18 07:09:59;;;;;;;25.55;5.00;;;8.20;93.80;;;;;;5050123;28;23333;-77
2021/12/18 07:12:25;;;;;;;35.97;6.00;;;8.20;93.80;;;;;;5063257;28;20066;-79
2021/12/18 07:14:50;;;;;;;32.50;5.75;;;8.20;94.20;;;;;;5019311;28;20066;-79
2021/12/18 07:17:16;;;;;;;29.30;6.00;;;8.20;93.80;;;;;;5047040;28;20056;-81
2021/12/18 07:19:42;;;;;;;40.33;6.82;;;8.20;93.80;;;;;;5049360;28;20072;-81
2021/12/18 07:22:07;;;;;;;41.08;7.45;;;8.20;93.80;;;;;;5034098;28;20052;-77
2021/12/18 07:24:33;;;;;;;36.13;6.30;;;8.20;93.70;;;;;;5049574;28;20111;-77
2021/12/18 07:26:59;;;;;;;37.90;6.15;;;8.20;93.80;;;;;;5048216;28;20064;-78
2021/12/18 07:29:25;;;;;;;33.88;5.60;;;8.20;93.80;;;;;;5048041;28;20143;-78
2021/12/18 07:31:51;;;;;;;35.20;5.80;;;8.20;93.80;;;;;;5047797;28;20057;-78
2021/12/18 07:34:17;;;;;;;30.00;6.05;;;8.20;94.20;;;;;;5062197;28;20068;-78
2021/12/18 07:36:43;;;;;;;29.27;5.65;;;8.30;93.80;;;;;;5030358;28;20122;-79
2021/12/18 07:39:09;;;;;;;28.45;4.55;;;8.30;93.80;;;;;;5046735;28;20057;-79
2021/12/18 07:41:34;;;;;;;31.17;4.40;;;8.30;93.80;;;;;;5053781;28;20077;-79
2021/12/18 07:44:00;;;;;;;35.83;5.70;;;8.30;93.80;;;;;;5018166;28;20061;-79
2021/12/18 07:46:26;;;;;;;32.45;6.18;;;8.20;93.70;;;;;;5034692;28;20769;-79
2021/12/18 07:48:51;;;;;;;26.73;5.47;;;8.30;93.80;;;;;;5048207;28;20111;-79
2021/12/18 07:51:17;;;;;;;31.92;5.63;;;8.30;93.80;;;;;;5044620;28;20086;-80
2021/12/18 07:53:43;;;;;;;35.38;6.07;;;8.20;93.80;;;;;;5047506;28;21983;-80
2021/12/18 07:56:09;;;;;;;29.92;5.20;;;8.20;93.70;;;;;;5048660;28;20097;-79
2021/12/18 07:58:36;;;;;;;37.03;4.68;;;8.30;93.80;;;;;;5046495;28;20054;-78
2021/12/18 08:01:03;;;;;;;30.85;5.00;;;8.30;93.80;;;;;;5062568;28;20109;-79
2021/12/18 08:03:29;;;;;;;37.45;5.97;;;8.20;93.80;;;;;;5049577;28;20089;-79
2021/12/18 08:05:55;;;;;;;37.50;5.78;;;8.30;93.90;;;;;;5043465;28;20053;-79
2021/12/18 08:08:20;;;;;;;31.30;5.40;;;8.30;93.80;;;;;;5049727;28;20058;-80
2021/12/18 08:10:46;;;;;;;38.30;6.10;;;8.30;93.80;;;;;;5063043;28;20094;-80
2021/12/18 08:13:12;;;;;;;36.05;6.43;;;8.30;93.80;;;;;;5046543;28;20061;-79
2021/12/18 08:15:38;;;;;;;30.00;5.60;;;8.30;93.90;;;;;;5034885;28;20077;-80
2021/12/18 08:18:07;;;;;;;39.65;7.28;;;8.30;93.90;;;;;;5066732;28;20140;-78
2021/12/18 08:20:34;;;;;;;33.40;6.30;;;8.30;93.90;;;;;;5067159;28;20468;-81
2021/12/18 08:23:01;;;;;;;39.35;6.53;;;8.30;93.90;;;;;;5063751;28;20604;-78
2021/12/18 08:25:28;;;;;;;32.00;5.80;;;8.30;93.90;;;;;;5066627;28;20050;-80
2021/12/18 08:27:55;;;;;;;33.88;6.07;;;8.30;93.90;;;;;;5047944;28;20062;-79
2021/12/18 08:30:22;;;;;;;35.40;5.88;;;8.30;93.90;;;;;;5049474;28;20054;-79
2021/12/18 08:32:48;;;;;;;31.85;6.75;;;8.40;93.90;;;;;;5050251;28;20063;-79
2021/12/18 08:35:14;;;;;;;40.00;6.53;;;8.40;94.00;;;;;;5050091;28;20062;-78
2021/12/18 08:37:40;;;;;;;41.47;7.30;;;8.40;94.00;;;;;;5066595;28;20134;-79
2021/12/18 08:40:07;;;;;;;39.00;7.70;;;8.40;94.00;;;;;;5021003;28;20590;-82
2021/12/18 08:42:33;;;;;;;42.05;8.18;;;8.40;94.00;;;;;;5052854;28;20057;-80
2021/12/18 08:44:58;;;;;;;43.25;7.88;;;8.50;94.00;;;;;;5066992;28;20059;-77
2021/12/18 08:47:25;;;;;;;45.25;7.55;;;8.50;94.00;;;;;;5070040;28;20168;-82
2021/12/18 08:49:51;;;;;;;42.83;7.40;;;8.40;94.00;;;;;;5028762;28;20051;-78
2021/12/18 08:52:17;;;;;;;52.20;7.47;;;8.50;94.00;;;;;;5070297;28;20053;-81
2021/12/18 08:54:44;;;;;;;39.33;6.97;;;8.50;94.10;;;;;;5050837;28;20132;-81
2021/12/18 08:57:10;;;;;;;40.00;7.10;;;8.50;94.10;;;;;;5049511;28;20056;-82
2021/12/18 08:59:37;;;;;;;35.45;6.97;;;8.60;94.10;;;;;;5038255;28;20052;-79
2021/12/18 09:02:03;;;;;;;41.95;7.22;;;8.60;94.10;;;;;;5036763;28;20447;-80
2021/12/18 09:04:28;;;;;;;46.85;9.65;;;8.60;94.10;;;;;;5067031;28;20508;-80
2021/12/18 09:06:54;;;;;;;54.45;9.02;;;8.60;94.10;;;;;;5049290;28;20069;-78
2021/12/18 09:09:21;;;;;;;43.50;7.20;;;8.60;94.10;;;;;;5055196;28;20932;-80
2021/12/18 09:11:46;;;;;;;48.03;8.90;;;8.60;94.10;;;;;;5054253;28;20044;-80
2021/12/18 09:14:12;;;;;;;41.08;8.15;;;8.70;94.10;;;;;;5037881;28;20521;-79
2021/12/18 09:16:38;;;;;;;35.28;7.38;;;8.70;94.10;;;;;;5069943;28;20574;-81
2021/12/18 09:19:03;;;;;;;41.35;7.28;;;8.70;94.10;;;;;;5054293;28;20621;-80
2021/12/18 09:21:29;;;;;;;48.78;7.35;;;8.70;94.20;;;;;;5064123;28;20075;-80
2021/12/18 09:23:55;;;;;;;50.63;7.78;;;8.70;94.20;;;;;;5068563;28;20132;-79
2021/12/18 09:26:21;;;;;;;42.10;8.20;;;8.70;94.10;;;;;;5056384;28;20100;-82
2021/12/18 09:28:46;;;;;;;45.13;7.97;;;8.80;94.20;;;;;;5018354;28;20052;-77
2021/12/18 09:31:12;;;;;;;42.88;7.13;;;8.80;94.20;;;;;;5065688;28;20069;-80
2021/12/18 09:33:38;;;;;;;36.92;8.10;;;8.80;94.20;;;;;;5020559;28;20065;-79
2021/12/18 09:36:04;;;;;;;50.10;8.57;;;8.80;94.20;;;;;;5050462;28;20412;-80
2021/12/18 09:38:29;;;;;;;41.33;8.88;;;8.80;94.20;;;;;;5051910;28;20396;-82
2021/12/18 09:41:00;;;;;;;38.60;8.75;;;8.90;94.20;;;;;;5049122;28;20065;-82
2021/12/18 09:43:26;;;;;;;44.78;8.32;;;8.90;94.30;;;;;;5050931;28;20061;-83
2021/12/18 09:45:52;;;;;;;42.63;8.15;;;8.90;94.20;;;;;;5034931;28;20075;-82
2021/12/18 09:48:20;;;;;;;46.03;11.20;;;9.00;94.30;;;;;;5053185;28;20496;-80
2021/12/18 09:50:54;;;;;;;45.25;12.38;;;9.00;94.30;;;;;;5037857;28;20520;-79
2021/12/18 09:53:20;;;;;;;37.90;8.32;;;9.00;94.20;;;;;;5039325;28;20048;-80
2021/12/18 09:55:46;;;;;;;42.13;8.27;;;9.00;94.20;;;;;;5035455;28;20106;-82
2021/12/18 09:58:11;;;;;;;38.83;7.78;;;9.10;94.30;;;;;;5051270;28;20060;-81
2021/12/18 10:00:37;;;;;;;43.75;8.48;;;9.10;94.30;;;;;;5054462;28;20068;-82
2021/12/18 10:03:03;;;;;;;41.10;8.90;;;9.10;94.30;;;;;;5047822;28;20114;-82
2021/12/18 10:05:31;;;;;;;45.83;9.70;;;9.10;94.30;;;;;;5049071;28;20135;-82
2021/12/18 10:08:09;;;;;;;42.40;9.70;;;9.20;94.30;;;;;;5054516;28;20047;-82
2021/12/18 10:10:37;;;;;;;51.10;9.65;;;9.20;94.30;;;;;;5050146;28;20052;-81
2021/12/18 10:13:09;;;;;;;41.75;9.50;;;9.10;94.30;;;;;;5069822;28;20056;-81
2021/12/18 10:15:36;;;;;;;47.38;10.38;;;9.20;94.30;;;;;;5049593;28;20055;-81
2021/12/18 10:18:06;;;;;;;40.25;9.48;;;9.20;94.40;;;;;;5065089;28;20045;-80
2021/12/18 10:20:32;;;;;;;38.97;8.63;;;9.30;94.30;;;;;;5061270;28;20064;-82
2021/12/18 10:23:03;;;;;;;44.85;9.43;;;9.30;94.30;;;;;;5046662;28;20123;-81
2021/12/18 10:25:47;;;;;;;36.63;8.60;;;9.40;94.30;;;;;;5044301;28;20049;-82
2021/12/18 10:28:20;;;;;;;39.88;9.07;;;9.40;94.30;;;;;;5051803;28;20051;-81
2021/12/18 10:30:47;;;;;;;36.10;8.85;;;9.40;94.60;;;;;;5048568;28;20500;-80
2021/12/18 10:33:13;;;;;;;37.42;9.65;;;9.40;94.30;;;;;;5068474;28;20167;-80
2021/12/18 10:35:41;;;;;;;34.17;8.88;;;9.40;94.30;;;;;;5063811;28;20056;-80
2021/12/18 10:38:07;;;;;;;40.85;9.75;;;9.40;94.30;;;;;;5047093;28;20052;-80
2021/12/18 10:40:44;;;;;;;46.42;10.07;;;9.40;94.30;;;;;;5063675;28;20199;-80
2021/12/18 10:43:11;;;;;;;38.22;10.25;;;9.40;94.30;;;;;;5048352;28;20104;-80
2021/12/18 10:45:37;;;;;;;47.47;10.40;;;9.40;94.30;;;;;;5065546;28;20046;-80
2021/12/18 10:48:08;;;;;;;42.88;9.13;;;9.40;94.30;;;;;;5045740;28;20123;-80
2021/12/18 10:50:51;;;;;;;45.72;10.48;;;9.40;94.30;;;;;;5046077;28;20055;-80
2021/12/18 10:53:23;;;;;;;42.33;10.93;;;9.50;94.40;;;;;;5060779;28;20064;-79
2021/12/18 10:55:51;;;;;;;39.55;10.18;;;9.50;94.40;;;;;;5066653;28;20055;-80
2021/12/18 10:58:25;;;;;;;49.50;11.30;;;9.50;94.30;;;;;;5066918;28;20132;-81
2021/12/18 11:01:05;;;;;;;37.90;9.18;;;9.50;94.30;;;;;;5056846;28;20061;-81
2021/12/18 11:03:37;;;;;;;35.90;9.07;;;9.50;94.30;;;;;;5061634;28;20079;-80
2021/12/18 11:06:11;;;;;;;35.30;7.85;;;9.50;94.30;;;;;;5049937;28;20088;-82
2021/12/18 11:09:01;;;;;;;31.38;8.77;;;9.50;94.30;;;;;;5058865;28;20046;-78
2021/12/18 11:14:05;;;;;;;28.48;6.90;;;9.50;94.30;;;;;;5057334;28;20050;-76
2021/12/18 11:16:35;;;;;;;17.10;5.35;;;9.50;94.30;;;;;;5044789;28;20078;-78
2021/12/18 11:19:13;;;;;;;17.35;5.35;;;9.50;94.30;;;;;;5040183;28;20062;-80
2021/12/18 11:21:42;;;;;;;17.30;5.03;;;9.40;94.30;;;;;;5064468;28;20226;-75
2021/12/18 11:24:09;;;;;;;16.08;4.90;;;9.50;94.30;;;;;;5062168;28;20570;-78
2021/12/18 11:26:59;;;;;;;11.30;3.72;;;9.60;94.50;;;;;;5059421;28;20495;-78
2021/12/18 11:29:44;;;;;;;11.35;3.92;;;9.60;94.30;;;;;;5059227;28;20060;-78
2021/12/18 11:32:13;;;;;;;7.88;3.13;;;9.60;94.20;;;;;;5060953;28;20062;-77
2021/12/18 11:34:39;;;;;;;5.97;2.50;;;9.60;94.20;;;;;;5062082;28;20126;-77
2021/12/18 11:37:11;;;;;;;12.05;5.03;;;9.60;94.20;;;;;;5043435;28;20113;-77
2021/12/18 11:39:38;;;;;;;14.40;7.15;;;9.60;94.30;;;;;;5042823;28;20101;-78
2021/12/18 11:42:05;;;;;;;15.75;9.45;;;9.60;94.10;;;;;;5043051;28;20100;-77
2021/12/18 11:44:43;;;;;;;20.50;10.32;;;9.70;94.10;;;;;;5057838;28;20125;-77
2021/12/18 11:47:32;;;;;;;17.45;8.70;;;9.70;94.10;;;;;;5062227;28;20052;-77
2021/12/18 11:50:03;;;;;;;13.30;5.85;;;9.80;94.30;;;;;;5043254;28;20044;-78
2021/12/18 11:52:49;;;;;;;9.23;3.88;;;9.90;94.10;;;;;;5050721;28;20067;-75
2021/12/18 11:55:15;;;;;;;9.15;2.97;;;10.00;94.00;;;;;;5064939;28;20128;-78
2021/12/18 11:57:52;;;;;;;8.52;3.38;;;10.00;93.90;;;;;;5066797;28;20138;-78
2021/12/18 12:00:18;;;;;;;12.80;3.50;;;10.10;93.80;;;;;;5063591;28;20060;-77
2021/12/18 12:02:52;;;;;;;10.88;3.40;;;10.10;93.60;;;;;;5070109;28;20574;-77
2021/12/18 12:05:30;;;;;;;11.48;3.65;;;10.10;93.60;;;;;;5049106;28;20133;-76
2021/12/18 12:08:31;;;;;;;13.80;4.10;;;10.10;93.50;;;;;;5071834;28;20046;-77
2021/12/18 12:11:17;;;;;;;14.55;4.80;;;10.10;93.60;;;;;;5049146;28;20649;-77
2021/12/18 12:14:15;;;;;;;13.15;4.80;;;10.10;93.50;;;;;;5053596;28;20054;-77
2021/12/18 12:16:44;;;;;;;14.68;4.85;;;10.00;93.50;;;;;;5043372;28;20067;-78
2021/12/18 12:19:16;;;;;;;14.93;4.93;;;10.00;93.40;;;;;;5069432;28;20399;-77
2021/12/18 12:21:47;;;;;;;15.52;5.25;;;10.00;93.50;;;;;;5070476;28;20151;-77
2021/12/18 12:24:18;;;;;;;16.88;5.10;;;9.90;93.40;;;;;;5041563;28;20073;-77
2021/12/18 12:26:45;;;;;;;15.02;4.32;;;9.90;93.50;;;;;;5071820;28;20051;-77
2021/12/18 12:29:15;;;;;;;14.70;5.38;;;9.90;93.40;;;;;;5036186;28;20150;-77
2021/12/18 12:31:58;;;;;;;14.07;5.38;;;9.90;93.40;;;;;;5075547;28;20050;-77
2021/12/18 12:34:34;;;;;;;16.50;4.95;;;9.90;93.40;;;;;;5066050;28;20065;-77
2021/12/18 12:37:22;;;;;;;13.93;4.95;;;10.00;93.40;;;;;;5064232;28;20059;-77
2021/12/18 12:39:57;;;;;;;18.60;6.13;;;9.90;93.40;;;;;;5041295;28;20519;-77
2021/12/18 12:42:23;;;;;;;19.75;7.40;;;9.90;93.40;;;;;;5069149;28;20090;-77
2021/12/18 12:45:01;;;;;;;24.05;7.53;;;9.90;93.30;;;;;;5068647;28;20046;-76
2021/12/18 12:47:28;;;;;;;21.48;8.18;;;9.90;93.30;;;;;;5057668;28;20123;-78
2021/12/18 12:49:56;;;;;;;26.23;9.75;;;9.90;93.30;;;;;;5076620;28;20049;-78
2021/12/18 12:52:27;;;;;;;22.95;7.43;;;9.90;93.40;;;;;;5065486;28;20057;-77
2021/12/18 12:55:05;;;;;;;24.42;7.75;;;9.90;93.40;;;;;;5051799;28;20051;-77
2021/12/18 12:57:32;;;;;;;21.98;7.45;;;9.90;93.40;;;;;;5048713;28;20044;-77
2021/12/18 12:59:58;;;;;;;22.60;7.30;;;9.90;93.40;;;;;;5066242;28;20059;-77
2021/12/18 13:02:32;;;;;;;23.73;7.22;;;9.90;93.40;;;;;;5050453;28;20050;-78
2021/12/18 13:05:01;;;;;;;18.10;6.28;;;9.90;93.40;;;;;;5071875;28;20072;-77
2021/12/18 13:07:27;;;;;;;17.98;6.05;;;9.90;93.40;;;;;;5050479;28;20081;-77
2021/12/18 13:09:53;;;;;;;16.92;5.97;;;9.90;93.70;;;;;;5048972;28;20482;-78
2021/12/18 13:12:19;;;;;;;27.73;7.45;;;9.90;93.40;;;;;;5067651;28;20048;-78
2021/12/18 13:14:46;;;;;;;30.27;10.57;;;10.00;93.40;;;;;;5032657;28;20048;-77
2021/12/18 13:17:22;;;;;;;15.30;6.20;;;10.00;93.30;;;;;;5051744;28;20047;-77
2021/12/18 13:20:04;;;;;;;22.65;6.35;;;10.00;93.30;;;;;;5050489;28;20133;-79
2021/12/18 13:22:32;;;;;;;24.42;6.82;;;10.00;93.30;;;;;;5056545;28;20062;-79
2021/12/18 13:25:08;;;;;;;22.98;8.02;;;10.00;93.20;;;;;;5050816;28;20546;-78
2021/12/18 13:27:37;;;;;;;34.85;13.23;;;9.90;93.20;;;;;;5046420;28;20079;-79
2021/12/18 13:30:16;;;;;;;29.67;9.07;;;9.90;93.20;;;;;;5050820;28;20086;-79
2021/12/18 13:32:58;;;;;;;20.73;6.35;;;9.90;93.20;;;;;;5050687;28;20057;-78
2021/12/18 13:35:27;;;;;;;26.17;10.38;;;9.90;93.20;;;;;;5068065;28;20066;-76
2021/12/18 13:38:07;;;;;;;15.02;5.03;;;9.90;93.30;;;;;;5067861;28;20043;-77